Aviation Digital Data Service (ADDS)

Output produced by METARs form (1743 UTC 18 September 2014)
found at http://aviationweather.gov/adds/metars/
 
KBPT 181738Z 1818/1918 23004KT 5SM -RA BR VCTS SCT050CB OVC080 
     TEMPO 1818/1822 1SM +SHRA BKN015 OVC040 
     FM190000 09004KT P6SM VCSH SCT025 OVC050 
     FM190900 VRB03KT 5SM BR BKN007 OVC100 
     FM191400 09006KT P6SM SCT015 BKN080